Time;durP1;ratioP1;P1;durP2;ratioP2;P2;SDS_P1;SDS_P2;PMS_P1;PMS_P2;Temp;Humidity;BMP_temperature;BMP_pressure;BME280_temperature;BME280_humidity;BME280_pressure;Samples;Min_cycle;Max_cycle;Signal;HPM_P1;HPM_P2
2021/12/02 00:01:00;;;;;;;0.50;0.50;;;5.80;99.90;;;;;;5054074;28;20447;-66
2021/12/02 00:03:47;;;;;;;0.40;0.40;;;5.80;99.90;;;;;;5054416;28;20448;-66
2021/12/02 00:06:36;;;;;;;0.40;0.40;;;5.80;99.90;;;;;;5054031;28;20427;-66
2021/12/02 00:09:23;;;;;;;0.50;0.50;;;5.80;99.90;;;;;;5054269;28;20480;-65
2021/12/02 00:12:10;;;;;;;1.83;0.60;;;5.80;99.90;;;;;;5053401;28;20467;-66
2021/12/02 00:15:00;;;;;;;2.93;1.17;;;5.80;99.90;;;;;;5053832;28;20449;-65
2021/12/02 00:17:54;;;;;;;0.50;0.50;;;5.80;99.90;;;;;;5053123;28;20453;-65
2021/12/02 00:23:52;;;;;;;0.97;0.50;;;5.80;99.90;;;;;;5052046;28;20452;-66
2021/12/02 00:26:40;;;;;;;2.30;0.60;;;5.70;99.90;;;;;;5052592;28;20491;-66
2021/12/02 00:29:31;;;;;;;0.77;0.50;;;5.70;99.90;;;;;;5053062;28;20454;-66
2021/12/02 00:32:19;;;;;;;1.37;0.60;;;5.70;99.90;;;;;;5052662;28;20463;-66
2021/12/02 00:35:09;;;;;;;0.50;0.50;;;5.70;99.90;;;;;;5052507;28;20583;-66
2021/12/02 00:37:59;;;;;;;2.83;1.07;;;5.60;99.90;;;;;;5053061;28;20463;-66
2021/12/02 00:40:46;;;;;;;0.40;0.40;;;8.70;99.90;;;;;;5052217;28;20424;-65
2021/12/02 00:43:35;;;;;;;0.53;0.53;;;5.40;99.90;;;;;;5041243;28;20441;-66
2021/12/02 00:46:23;;;;;;;0.40;0.40;;;5.40;99.90;;;;;;5033936;28;20425;-66
2021/12/02 00:49:13;;;;;;;0.40;0.40;;;5.30;99.90;;;;;;5033290;28;20424;-66
2021/12/02 00:52:03;;;;;;;0.60;0.50;;;5.30;99.90;;;;;;5032787;28;20495;-66
2021/12/02 00:54:51;;;;;;;0.57;0.57;;;5.30;99.90;;;;;;5033017;28;20519;-66
2021/12/02 00:57:40;;;;;;;3.40;0.63;;;5.50;99.90;;;;;;5033481;28;20428;-66
2021/12/02 01:00:27;;;;;;;0.50;0.50;;;5.50;99.90;;;;;;5033203;28;20424;-66
2021/12/02 01:03:15;;;;;;;0.40;0.40;;;5.50;99.90;;;;;;5032938;28;20468;-67
2021/12/02 01:06:04;;;;;;;0.70;0.70;;;5.50;99.90;;;;;;5033324;28;20421;-66
2021/12/02 01:08:53;;;;;;;0.60;0.50;;;5.50;99.90;;;;;;5033189;28;20435;-66
2021/12/02 01:11:40;;;;;;;0.40;0.40;;;5.30;99.90;;;;;;5032710;28;20427;-66
2021/12/02 01:14:28;;;;;;;0.40;0.40;;;4.60;99.90;;;;;;5033453;28;20441;-66
2021/12/02 01:17:15;;;;;;;0.70;0.60;;;3.70;99.90;;;;;;5032892;28;20447;-67
2021/12/02 01:20:03;;;;;;;0.60;0.50;;;3.50;99.90;;;;;;5032518;28;20429;-66
2021/12/02 01:22:51;;;;;;;0.40;0.40;;;3.30;99.90;;;;;;5033228;28;20413;-66
2021/12/02 01:25:41;;;;;;;0.40;0.40;;;3.30;99.90;;;;;;5032042;28;20792;-66
2021/12/02 01:28:29;;;;;;;0.40;0.40;;;3.00;99.90;;;;;;5032606;28;20422;-66
2021/12/02 01:31:16;;;;;;;0.40;0.40;;;3.00;99.90;;;;;;5035211;28;20502;-66
2021/12/02 01:34:07;;;;;;;0.40;0.40;;;2.80;99.90;;;;;;5036620;28;20487;-66
2021/12/02 01:36:55;;;;;;;0.50;0.50;;;3.00;99.90;;;;;;5036340;28;20800;-66
2021/12/02 01:39:42;;;;;;;0.50;0.50;;;3.00;99.90;;;;;;5036449;28;20429;-66
2021/12/02 01:42:39;;;;;;;0.40;0.40;;;3.00;99.90;;;;;;5039269;28;20426;-66
2021/12/02 01:45:28;;;;;;;0.50;0.50;;;3.10;99.90;;;;;;5055044;28;20928;-67
2021/12/02 01:48:23;;;;;;;0.40;0.40;;;3.00;99.90;;;;;;5054952;28;20421;-66
2021/12/02 01:51:12;;;;;;;0.40;0.40;;;3.10;99.90;;;;;;5065485;28;20447;-66
2021/12/02 01:54:06;;;;;;;0.40;0.40;;;3.10;99.90;;;;;;5066274;28;20475;-67
2021/12/02 01:56:55;;;;;;;0.50;0.50;;;3.10;99.90;;;;;;5067297;28;20431;-67
2021/12/02 01:59:52;;;;;;;0.40;0.40;;;3.10;99.90;;;;;;5071465;28;20443;-67
2021/12/02 02:02:40;;;;;;;0.40;0.40;;;3.10;99.90;;;;;;5071390;28;20455;-67
2021/12/02 02:05:28;;;;;;;0.50;0.50;;;3.10;99.90;;;;;;5059679;28;20428;-67
2021/12/02 02:08:17;;;;;;;0.40;0.40;;;3.10;99.90;;;;;;5055509;28;20433;-67
2021/12/02 02:11:04;;;;;;;0.40;0.40;;;1.60;99.90;;;;;;5054966;28;20494;-66
2021/12/02 02:13:51;;;;;;;0.40;0.40;;;2.90;99.90;;;;;;5055758;28;20503;-66
2021/12/02 02:16:41;;;;;;;0.50;0.50;;;2.90;99.90;;;;;;5055809;28;20789;-66
2021/12/02 02:19:30;;;;;;;0.40;0.40;;;2.90;99.90;;;;;;5054986;28;20420;-67
2021/12/02 02:22:21;;;;;;;0.50;0.50;;;2.90;99.90;;;;;;5055204;28;20510;-66
2021/12/02 02:25:12;;;;;;;1.50;0.53;;;2.20;99.90;;;;;;5055340;28;20466;-66
2021/12/02 02:27:59;;;;;;;0.50;0.43;;;2.90;99.90;;;;;;5054742;28;20421;-67
2021/12/02 02:30:46;;;;;;;0.40;0.40;;;3.00;99.90;;;;;;5055042;28;20482;-66
2021/12/02 02:33:37;;;;;;;0.40;0.40;;;2.50;99.90;;;;;;5055212;28;20471;-66
2021/12/02 02:36:27;;;;;;;1.33;0.60;;;2.40;99.90;;;;;;5053374;28;20424;-66
2021/12/02 02:39:15;;;;;;;0.40;0.40;;;3.10;99.90;;;;;;5051709;28;21010;-66
2021/12/02 02:42:06;;;;;;;0.67;0.67;;;3.10;99.90;;;;;;5045198;28;20422;-66
2021/12/02 02:44:55;;;;;;;0.40;0.40;;;3.20;99.90;;;;;;5036644;28;20433;-66
2021/12/02 02:47:42;;;;;;;0.50;0.50;;;3.20;99.90;;;;;;5034711;28;20527;-66
2021/12/02 02:50:31;;;;;;;0.50;0.50;;;3.20;99.90;;;;;;5034496;28;20476;-67
2021/12/02 02:53:22;;;;;;;0.40;0.40;;;3.30;99.90;;;;;;5034760;28;20573;-66
2021/12/02 02:56:14;;;;;;;0.40;0.40;;;3.30;99.90;;;;;;5033592;28;20528;-67
2021/12/02 02:59:09;;;;;;;0.40;0.40;;;3.20;99.90;;;;;;5034219;28;20441;-66
2021/12/02 03:02:06;;;;;;;0.40;0.40;;;3.20;99.90;;;;;;5035510;28;20425;-67
2021/12/02 03:04:58;;;;;;;0.40;0.40;;;3.10;99.90;;;;;;5034135;28;20453;-67
2021/12/02 03:07:51;;;;;;;0.50;0.50;;;3.20;99.90;;;;;;5033157;28;20809;-66
2021/12/02 03:10:43;;;;;;;0.50;0.50;;;3.30;99.90;;;;;;5033755;28;20870;-66
2021/12/02 03:13:38;;;;;;;0.40;0.40;;;3.40;99.90;;;;;;5033759;28;20528;-66
2021/12/02 03:16:43;;;;;;;0.60;0.60;;;3.40;99.90;;;;;;5033642;28;20421;-66
2021/12/02 03:19:30;;;;;;;0.63;0.40;;;3.40;99.90;;;;;;5033446;28;20429;-67
2021/12/02 03:22:17;;;;;;;0.47;0.47;;;3.50;99.90;;;;;;5033931;28;20956;-66
2021/12/02 03:25:06;;;;;;;0.50;0.50;;;3.50;99.90;;;;;;5034077;28;20460;-69
2021/12/02 03:27:53;;;;;;;0.47;0.47;;;3.60;99.90;;;;;;5034623;28;20422;-67
2021/12/02 03:30:41;;;;;;;2.00;0.50;;;3.60;99.90;;;;;;5033293;28;20845;-68
2021/12/02 03:33:28;;;;;;;0.70;0.70;;;3.70;99.90;;;;;;5033085;28;20543;-68
2021/12/02 03:36:17;;;;;;;0.77;0.77;;;3.60;99.90;;;;;;5034402;28;20444;-67
2021/12/02 03:39:05;;;;;;;2.00;0.73;;;3.60;99.90;;;;;;5032557;28;20566;-67
2021/12/02 03:41:54;;;;;;;0.50;0.50;;;3.60;99.90;;;;;;5034580;28;20430;-66
2021/12/02 03:44:42;;;;;;;0.50;0.50;;;3.60;99.90;;;;;;5046216;28;20437;-68
2021/12/02 03:48:12;;;;;;;1.80;0.93;;;3.60;99.90;;;;;;5043955;28;20500;-66
2021/12/02 03:51:00;;;;;;;0.47;0.47;;;3.60;99.90;;;;;;5040141;28;20999;-66
2021/12/02 03:53:48;;;;;;;1.50;0.60;;;3.60;99.90;;;;;;5041226;28;20587;-66
2021/12/02 03:56:35;;;;;;;0.40;0.40;;;3.50;99.90;;;;;;5033305;28;20430;-66
2021/12/02 03:59:22;;;;;;;0.40;0.40;;;3.40;99.90;;;;;;5032924;28;20798;-66
2021/12/02 04:02:08;;;;;;;0.53;0.53;;;3.30;99.90;;;;;;5033782;28;20425;-66
2021/12/02 04:04:55;;;;;;;0.40;0.40;;;3.30;99.90;;;;;;5033427;28;20441;-67
2021/12/02 04:07:44;;;;;;;2.00;0.57;;;3.40;99.90;;;;;;5033054;28;20432;-67
2021/12/02 04:10:31;;;;;;;0.40;0.40;;;3.40;99.90;;;;;;5033406;28;20496;-67
2021/12/02 04:13:23;;;;;;;0.50;0.50;;;3.50;99.90;;;;;;5034894;28;20469;-66
2021/12/02 04:16:15;;;;;;;0.50;0.50;;;3.50;99.90;;;;;;5032742;28;20421;-66
2021/12/02 04:19:02;;;;;;;0.40;0.40;;;3.50;99.90;;;;;;5032168;28;20426;-67
2021/12/02 04:21:49;;;;;;;0.73;0.73;;;3.50;99.90;;;;;;5032985;28;20426;-67
2021/12/02 04:24:37;;;;;;;1.33;0.73;;;3.40;99.90;;;;;;5031816;28;20519;-67
2021/12/02 04:27:24;;;;;;;0.50;0.50;;;3.50;99.90;;;;;;5031931;28;20476;-67
2021/12/02 04:30:13;;;;;;;0.50;0.50;;;3.40;99.90;;;;;;5032902;28;20455;-67
2021/12/02 04:33:00;;;;;;;0.40;0.40;;;3.30;99.90;;;;;;5032910;28;20973;-67
2021/12/02 04:35:47;;;;;;;0.83;0.50;;;3.20;99.90;;;;;;5031904;28;20428;-68
2021/12/02 04:38:34;;;;;;;1.07;0.90;;;3.20;99.90;;;;;;5033388;28;20789;-66
2021/12/02 04:41:23;;;;;;;0.50;0.50;;;3.20;99.90;;;;;;5048599;28;20843;-67
2021/12/02 04:44:09;;;;;;;0.50;0.50;;;3.30;99.90;;;;;;5035350;28;20529;-67
2021/12/02 04:46:56;;;;;;;3.03;0.50;;;3.20;99.90;;;;;;5031613;28;20421;-67
2021/12/02 04:49:44;;;;;;;0.47;0.47;;;3.10;99.90;;;;;;5031456;28;20961;-67
2021/12/02 04:52:31;;;;;;;2.10;0.67;;;3.10;99.90;;;;;;5032399;28;20449;-67
2021/12/02 04:55:17;;;;;;;0.60;0.60;;;3.10;99.90;;;;;;5034620;28;20541;-67
2021/12/02 04:58:06;;;;;;;0.73;0.73;;;3.10;99.90;;;;;;5043739;28;20453;-66
2021/12/02 05:00:53;;;;;;;0.77;0.77;;;3.10;99.90;;;;;;5039774;28;20445;-67
2021/12/02 05:03:40;;;;;;;0.40;0.40;;;3.20;99.90;;;;;;5038356;28;20446;-67
2021/12/02 05:06:27;;;;;;;2.30;0.70;;;3.20;99.90;;;;;;5037218;28;20429;-66
2021/12/02 05:09:14;;;;;;;0.50;0.50;;;3.10;99.90;;;;;;5035502;28;20963;-67
2021/12/02 05:12:01;;;;;;;0.60;0.60;;;3.20;99.90;;;;;;5032582;28;20424;-66
2021/12/02 05:14:49;;;;;;;0.40;0.40;;;3.30;99.90;;;;;;5032386;28;20469;-66
2021/12/02 05:17:36;;;;;;;0.50;0.50;;;3.30;99.90;;;;;;5032076;28;20532;-66
2021/12/02 05:20:22;;;;;;;0.40;0.40;;;3.30;99.90;;;;;;5032315;28;20429;-66
2021/12/02 05:23:09;;;;;;;0.50;0.50;;;3.30;99.90;;;;;;5032232;28;20445;-66
2021/12/02 05:25:56;;;;;;;0.50;0.50;;;3.30;99.90;;;;;;5031673;28;20425;-67
2021/12/02 05:28:43;;;;;;;0.97;0.40;;;3.30;99.90;;;;;;5031855;28;20425;-67
2021/12/02 05:31:31;;;;;;;1.23;0.93;;;3.30;99.90;;;;;;5032385;28;20425;-66
2021/12/02 05:34:19;;;;;;;0.40;0.40;;;3.40;99.90;;;;;;5031170;28;20473;-66
2021/12/02 05:37:06;;;;;;;0.40;0.40;;;3.10;99.90;;;;;;5031478;28;20461;-67
2021/12/02 05:39:53;;;;;;;0.40;0.40;;;3.10;99.90;;;;;;5032258;28;20457;-66
2021/12/02 05:42:40;;;;;;;0.50;0.50;;;3.10;99.90;;;;;;5035533;28;20510;-67
2021/12/02 05:45:27;;;;;;;0.97;0.60;;;3.10;99.90;;;;;;5052215;28;20420;-66
2021/12/02 05:48:15;;;;;;;0.53;0.53;;;3.00;99.90;;;;;;5052049;28;20424;-67
2021/12/02 05:51:02;;;;;;;2.00;1.63;;;3.10;99.90;;;;;;5051420;28;20479;-66
2021/12/02 05:53:49;;;;;;;0.43;0.43;;;3.10;99.90;;;;;;5051388;28;20498;-68
2021/12/02 05:56:36;;;;;;;0.70;0.70;;;3.00;99.90;;;;;;5051954;28;20429;-66
2021/12/02 05:59:24;;;;;;;0.40;0.40;;;3.10;99.90;;;;;;5051838;28;20439;-67
2021/12/02 06:02:11;;;;;;;0.40;0.40;;;3.10;99.90;;;;;;5051752;28;20435;-67
2021/12/02 06:04:59;;;;;;;0.50;0.50;;;3.20;99.90;;;;;;5051786;28;20449;-67
2021/12/02 06:07:49;;;;;;;0.40;0.40;;;3.20;99.90;;;;;;5052076;28;20429;-66
2021/12/02 06:10:36;;;;;;;0.47;0.47;;;3.20;99.90;;;;;;5058620;28;20428;-68
2021/12/02 06:13:24;;;;;;;0.50;0.50;;;3.20;99.90;;;;;;5053045;28;20467;-66
2021/12/02 06:16:11;;;;;;;3.50;0.70;;;3.20;99.90;;;;;;5051473;28;20611;-67
2021/12/02 06:18:58;;;;;;;0.40;0.40;;;3.10;99.90;;;;;;5056358;28;20478;-67
2021/12/02 06:21:47;;;;;;;1.53;0.60;;;3.10;99.90;;;;;;5056116;28;20523;-66
2021/12/02 06:24:43;;;;;;;0.63;0.50;;;3.00;99.90;;;;;;5057498;28;20458;-67
2021/12/02 06:27:29;;;;;;;0.50;0.50;;;3.00;99.90;;;;;;5055302;28;20456;-66
2021/12/02 06:30:18;;;;;;;0.40;0.40;;;3.00;99.90;;;;;;5054383;28;20428;-67
2021/12/02 06:33:05;;;;;;;0.60;0.60;;;2.90;99.90;;;;;;5055029;28;20441;-67
2021/12/02 06:35:52;;;;;;;0.40;0.40;;;2.80;99.90;;;;;;5055074;28;20460;-67
2021/12/02 06:38:42;;;;;;;0.40;0.40;;;2.80;99.90;;;;;;5057832;28;20547;-66
2021/12/02 06:41:28;;;;;;;0.40;0.40;;;2.70;99.90;;;;;;5055134;28;20424;-68
2021/12/02 06:44:15;;;;;;;0.50;0.50;;;2.60;99.90;;;;;;5036908;28;20813;-68
2021/12/02 06:47:03;;;;;;;0.50;0.50;;;2.70;99.90;;;;;;5034409;28;20499;-67
2021/12/02 06:49:50;;;;;;;0.40;0.40;;;2.70;99.90;;;;;;5034856;28;20426;-68
2021/12/02 06:52:37;;;;;;;0.60;0.47;;;2.80;99.90;;;;;;5034723;28;20952;-67
2021/12/02 06:55:26;;;;;;;2.67;0.60;;;2.80;99.90;;;;;;5035188;28;20472;-68
2021/12/02 06:58:12;;;;;;;1.33;0.60;;;2.80;99.90;;;;;;5035351;28;20421;-66
2021/12/02 07:00:59;;;;;;;0.50;0.50;;;2.70;99.90;;;;;;5035457;28;20852;-67
2021/12/02 07:03:46;;;;;;;0.40;0.40;;;2.80;99.90;;;;;;5034400;28;20472;-67
2021/12/02 07:06:36;;;;;;;1.83;0.60;;;2.90;99.90;;;;;;5034271;28;20437;-69
2021/12/02 07:09:23;;;;;;;0.90;0.50;;;2.80;99.90;;;;;;5033916;28;20426;-67
2021/12/02 07:12:12;;;;;;;0.40;0.40;;;2.80;99.90;;;;;;5034125;28;20852;-66
2021/12/02 07:15:01;;;;;;;0.50;0.50;;;2.80;99.90;;;;;;5033932;28;20469;-66
2021/12/02 07:17:51;;;;;;;0.40;0.40;;;2.60;99.90;;;;;;5034761;28;20508;-69
2021/12/02 07:20:37;;;;;;;0.40;0.40;;;2.50;99.90;;;;;;5033795;28;20425;-67
2021/12/02 07:23:24;;;;;;;2.87;1.10;;;2.50;99.90;;;;;;5034671;28;20490;-67
2021/12/02 07:26:11;;;;;;;0.50;0.50;;;2.40;99.90;;;;;;5034121;28;20487;-67
2021/12/02 07:28:59;;;;;;;1.40;0.63;;;2.40;99.90;;;;;;5032967;28;20463;-66
2021/12/02 07:31:46;;;;;;;0.70;0.63;;;2.30;99.90;;;;;;5033799;28;20927;-66
2021/12/02 07:34:36;;;;;;;0.60;0.60;;;2.30;99.90;;;;;;5033354;28;20989;-66
2021/12/02 07:37:24;;;;;;;0.60;0.50;;;2.20;99.90;;;;;;5033587;28;20436;-68
2021/12/02 07:40:12;;;;;;;0.40;0.40;;;2.20;99.90;;;;;;5033534;28;20460;-67
2021/12/02 07:42:59;;;;;;;0.40;0.40;;;2.10;99.90;;;;;;5040541;28;20432;-66
2021/12/02 07:45:47;;;;;;;0.40;0.40;;;2.20;99.90;;;;;;5053162;28;20807;-67
2021/12/02 07:48:35;;;;;;;0.40;0.40;;;2.10;99.90;;;;;;5053095;28;20475;-67
2021/12/02 07:51:28;;;;;;;0.40;0.40;;;2.10;99.90;;;;;;5052650;28;20425;-67
2021/12/02 07:54:18;;;;;;;0.60;0.60;;;2.10;99.90;;;;;;5052350;28;20479;-67
2021/12/02 07:57:05;;;;;;;0.40;0.40;;;2.10;99.90;;;;;;5052485;28;20427;-67
2021/12/02 07:59:53;;;;;;;1.33;0.90;;;2.00;99.90;;;;;;5052563;28;20914;-66
2021/12/02 08:02:45;;;;;;;0.50;0.50;;;2.00;99.90;;;;;;5053227;28;20484;-66
2021/12/02 08:05:32;;;;;;;0.40;0.40;;;2.00;99.90;;;;;;5058846;28;20433;-67
2021/12/02 08:08:18;;;;;;;3.23;0.50;;;2.00;99.90;;;;;;5047687;28;20440;-67
2021/12/02 08:11:06;;;;;;;0.50;0.50;;;2.10;99.90;;;;;;5062734;28;20456;-67
2021/12/02 08:13:56;;;;;;;0.40;0.40;;;2.00;99.90;;;;;;5061742;28;20546;-67
2021/12/02 08:16:48;;;;;;;0.70;0.50;;;2.00;99.90;;;;;;5061127;28;20441;-66
2021/12/02 08:19:37;;;;;;;0.40;0.40;;;2.00;99.90;;;;;;5054713;28;20487;-66
2021/12/02 08:22:24;;;;;;;0.40;0.40;;;2.10;99.90;;;;;;5034605;28;20462;-66
2021/12/02 08:25:11;;;;;;;0.60;0.50;;;2.20;99.90;;;;;;5032869;28;20702;-66
2021/12/02 08:28:00;;;;;;;0.40;0.40;;;2.20;99.90;;;;;;5032860;28;20433;-68
2021/12/02 08:30:49;;;;;;;0.50;0.50;;;2.20;99.90;;;;;;5032609;28;20467;-68
2021/12/02 08:33:36;;;;;;;0.47;0.47;;;2.20;99.90;;;;;;5032382;28;20461;-69
2021/12/02 08:36:27;;;;;;;0.40;0.40;;;2.20;99.90;;;;;;5031725;28;20951;-68
2021/12/02 08:39:18;;;;;;;0.80;0.80;;;2.20;99.90;;;;;;5031840;28;20463;-67
2021/12/02 08:42:05;;;;;;;0.80;0.53;;;2.20;99.90;;;;;;5032954;28;20426;-67
2021/12/02 08:44:53;;;;;;;0.60;0.47;;;2.30;99.90;;;;;;5032466;28;20445;-67
2021/12/02 08:47:44;;;;;;;0.60;0.60;;;;;;;;;;5033044;28;20429;-68
2021/12/02 08:50:33;;;;;;;4.10;0.67;;;2.20;99.90;;;;;;5031231;28;20797;-67
2021/12/02 08:53:22;;;;;;;0.40;0.40;;;2.20;99.90;;;;;;5030794;28;20457;-66
2021/12/02 08:56:09;;;;;;;0.40;0.40;;;2.30;99.90;;;;;;5032329;28;20422;-67
2021/12/02 08:58:56;;;;;;;0.40;0.40;;;2.30;99.90;;;;;;5032014;28;20851;-67
2021/12/02 09:01:43;;;;;;;0.40;0.40;;;2.40;99.90;;;;;;5040696;28;20425;-67
2021/12/02 09:04:29;;;;;;;9.63;0.70;;;2.30;99.90;;;;;;5032030;28;20433;-66
2021/12/02 09:07:17;;;;;;;3.67;0.70;;;2.30;99.90;;;;;;5040449;28;20461;-66
2021/12/02 09:10:07;;;;;;;0.53;0.53;;;2.30;99.90;;;;;;5051916;28;20436;-67
2021/12/02 09:12:55;;;;;;;0.40;0.40;;;2.30;99.90;;;;;;5053647;28;20932;-67
2021/12/02 09:15:42;;;;;;;0.50;0.50;;;1.70;99.90;;;;;;5053138;28;20472;-67
2021/12/02 09:18:29;;;;;;;0.40;0.40;;;2.40;99.90;;;;;;5052810;28;20455;-67
2021/12/02 09:21:16;;;;;;;0.50;0.50;;;2.30;99.90;;;;;;5055234;28;20456;-67
2021/12/02 09:24:03;;;;;;;0.40;0.40;;;2.40;99.90;;;;;;5060492;28;20819;-67
2021/12/02 09:26:53;;;;;;;0.57;0.57;;;2.40;99.90;;;;;;5057645;28;20424;-67
2021/12/02 09:29:40;;;;;;;0.40;0.40;;;2.50;99.90;;;;;;5056805;28;20431;-67
2021/12/02 09:32:27;;;;;;;0.40;0.40;;;2.50;99.90;;;;;;5055666;28;20853;-67
2021/12/02 09:35:15;;;;;;;0.40;0.40;;;2.50;99.90;;;;;;5035929;28;20461;-66
2021/12/02 09:38:02;;;;;;;0.40;0.40;;;2.50;99.90;;;;;;5052816;28;20852;-67
2021/12/02 09:40:49;;;;;;;4.83;1.33;;;2.50;99.90;;;;;;5035255;28;20441;-66
2021/12/02 09:43:37;;;;;;;0.50;0.50;;;2.50;99.90;;;;;;5055871;23;20914;-70
2021/12/02 09:46:25;;;;;;;0.40;0.40;;;2.60;99.90;;;;;;5029133;28;20651;-71
2021/12/02 09:49:13;;;;;;;0.60;0.60;;;2.60;99.90;;;;;;5026843;28;20438;-69
2021/12/02 09:52:03;;;;;;;0.60;0.60;;;2.60;99.90;;;;;;5031678;28;20438;-69
2021/12/02 09:54:56;;;;;;;0.50;0.50;;;2.70;99.90;;;;;;5027028;28;20470;-70
2021/12/02 09:57:47;;;;;;;3.53;0.90;;;2.70;99.90;;;;;;5013816;28;20456;-70
2021/12/02 10:00:41;;;;;;;0.50;0.50;;;2.70;99.90;;;;;;5027213;28;20442;-70
2021/12/02 10:03:31;;;;;;;0.50;0.50;;;2.80;99.90;;;;;;5031236;28;20443;-70
2021/12/02 10:06:22;;;;;;;0.40;0.40;;;2.70;99.90;;;;;;5032304;28;20489;-70
2021/12/02 10:09:13;;;;;;;0.50;0.50;;;2.70;99.90;;;;;;5033152;28;20541;-70
2021/12/02 10:12:12;;;;;;;0.50;0.50;;;2.80;99.90;;;;;;5035609;28;20433;-70
2021/12/02 10:15:01;;;;;;;0.73;0.73;;;2.80;99.90;;;;;;5033901;28;20465;-70
2021/12/02 10:17:51;;;;;;;0.60;0.60;;;2.80;99.90;;;;;;5029814;28;20676;-69
2021/12/02 10:20:42;;;;;;;2.20;0.60;;;2.80;99.90;;;;;;5014552;28;20411;-70
2021/12/02 10:23:34;;;;;;;0.50;0.50;;;2.90;99.90;;;;;;5024984;28;20461;-70
2021/12/02 10:26:23;;;;;;;0.50;0.50;;;2.90;99.90;;;;;;5033158;28;20454;-70
2021/12/02 10:29:13;;;;;;;0.40;0.40;;;2.80;99.90;;;;;;5027885;28;20462;-70
2021/12/02 10:32:10;;;;;;;0.50;0.50;;;2.90;99.90;;;;;;5029542;28;20518;-70
2021/12/02 10:35:00;;;;;;;1.37;0.60;;;2.90;99.90;;;;;;5030637;28;20465;-69
2021/12/02 10:37:47;;;;;;;0.60;0.50;;;2.90;99.90;;;;;;5026132;28;20426;-70
2021/12/02 10:40:36;;;;;;;0.50;0.50;;;2.90;99.90;;;;;;5022019;28;20454;-70
2021/12/02 10:43:23;;;;;;;0.50;0.50;;;3.00;99.90;;;;;;5025509;28;20528;-69
2021/12/02 10:46:16;;;;;;;0.60;0.60;;;2.90;99.90;;;;;;5032441;28;20423;-69
2021/12/02 10:49:04;;;;;;;0.47;0.47;;;2.90;99.90;;;;;;5029355;28;20454;-68
2021/12/02 10:51:54;;;;;;;0.43;0.43;;;3.00;99.90;;;;;;5008647;28;20419;-69
2021/12/02 10:54:44;;;;;;;0.50;0.50;;;3.00;99.90;;;;;;5013422;28;20459;-70
2021/12/02 10:57:34;;;;;;;0.50;0.50;;;3.00;99.90;;;;;;5002537;28;20450;-70
2021/12/02 11:00:22;;;;;;;0.40;0.40;;;3.00;99.90;;;;;;5007887;28;20801;-70
2021/12/02 11:03:13;;;;;;;0.87;0.87;;;3.10;99.90;;;;;;5000003;28;20458;-70
2021/12/02 11:06:00;;;;;;;0.50;0.50;;;3.10;99.90;;;;;;4996959;28;20483;-70
2021/12/02 11:08:48;;;;;;;0.60;0.60;;;3.10;99.90;;;;;;4997357;28;20451;-70
2021/12/02 11:11:35;;;;;;;2.67;0.60;;;3.10;99.90;;;;;;4997259;28;20438;-70
2021/12/02 11:14:22;;;;;;;0.50;0.50;;;3.10;99.90;;;;;;4996937;28;20518;-70
2021/12/02 11:17:11;;;;;;;0.50;0.50;;;3.10;99.90;;;;;;4997569;28;20475;-70
2021/12/02 11:19:59;;;;;;;0.50;0.50;;;3.20;99.90;;;;;;4996483;28;20427;-70
2021/12/02 11:22:47;;;;;;;0.50;0.50;;;3.20;99.90;;;;;;4997237;28;20430;-70
2021/12/02 11:25:37;;;;;;;0.50;0.50;;;3.30;99.90;;;;;;4996982;28;20459;-70
2021/12/02 11:28:26;;;;;;;0.50;0.50;;;3.20;99.90;;;;;;4996571;28;20463;-70
2021/12/02 11:31:15;;;;;;;0.50;0.50;;;3.20;99.90;;;;;;4997831;28;20427;-70
2021/12/02 11:34:11;;;;;;;0.50;0.50;;;3.30;99.90;;;;;;4997434;28;20505;-70
2021/12/02 11:37:06;;;;;;;0.50;0.50;;;3.30;99.90;;;;;;4997934;28;20438;-70
2021/12/02 11:39:54;;;;;;;0.50;0.50;;;3.30;99.90;;;;;;4997792;28;20423;-69
2021/12/02 11:42:42;;;;;;;0.87;0.87;;;3.30;99.90;;;;;;5000375;28;20455;-70
2021/12/02 11:45:32;;;;;;;0.60;0.60;;;3.30;99.90;;;;;;5015951;28;20498;-69
2021/12/02 11:48:21;;;;;;;0.50;0.50;;;3.40;99.90;;;;;;5016496;28;20426;-70
2021/12/02 11:51:12;;;;;;;0.40;0.40;;;3.30;99.90;;;;;;5016398;28;20430;-70
2021/12/02 11:53:59;;;;;;;0.50;0.50;;;3.30;99.90;;;;;;5017214;28;20464;-70
2021/12/02 11:56:47;;;;;;;6.30;0.80;;;3.30;99.90;;;;;;5016283;28;20541;-69
2021/12/02 11:59:35;;;;;;;0.90;0.60;;;3.30;99.90;;;;;;5015979;28;20426;-71
2021/12/02 12:02:22;;;;;;;0.80;0.80;;;3.30;99.90;;;;;;5017223;28;20474;-69
2021/12/02 12:05:09;;;;;;;3.37;0.60;;;3.30;99.90;;;;;;5016754;28;20496;-70
2021/12/02 12:07:57;;;;;;;0.40;0.40;;;3.40;99.90;;;;;;5015144;28;20841;-69
2021/12/02 12:10:43;;;;;;;0.50;0.50;;;3.40;99.90;;;;;;5014513;28;20484;-70
2021/12/02 12:13:30;;;;;;;0.40;0.40;;;3.40;99.90;;;;;;5013917;28;20516;-71
2021/12/02 12:16:23;;;;;;;0.50;0.50;;;3.40;99.90;;;;;;5015004;28;20461;-70
2021/12/02 12:19:19;;;;;;;0.47;0.47;;;3.40;99.90;;;;;;5014991;28;20442;-68
2021/12/02 12:22:08;;;;;;;0.40;0.40;;;3.40;99.90;;;;;;5014582;28;20428;-69
2021/12/02 12:24:58;;;;;;;1.03;0.60;;;3.50;99.90;;;;;;5016314;28;20518;-68
2021/12/02 12:28:00;;;;;;;0.50;0.50;;;3.50;99.90;;;;;;5015272;28;20942;-69
2021/12/02 12:30:47;;;;;;;0.50;0.50;;;3.50;99.90;;;;;;5013984;28;20418;-68
2021/12/02 12:33:39;;;;;;;0.47;0.47;;;3.50;99.90;;;;;;5014417;28;20462;-69
2021/12/02 12:36:35;;;;;;;0.50;0.50;;;3.60;99.90;;;;;;5014792;28;20469;-69
2021/12/02 12:39:25;;;;;;;0.50;0.50;;;3.50;99.90;;;;;;5014065;28;20528;-69
2021/12/02 12:42:22;;;;;;;0.70;0.50;;;3.50;99.90;;;;;;5015288;28;20427;-69
2021/12/02 12:45:11;;;;;;;0.50;0.50;;;3.50;99.90;;;;;;5013494;28;20429;-70
2021/12/02 12:48:01;;;;;;;0.50;0.50;;;3.50;99.90;;;;;;5016065;28;20431;-69
2021/12/02 12:50:49;;;;;;;0.40;0.40;;;3.50;99.90;;;;;;5016235;28;20438;-69
2021/12/02 12:53:39;;;;;;;0.50;0.50;;;3.40;99.90;;;;;;5022896;28;21000;-69
2021/12/02 12:56:33;;;;;;;0.80;0.80;;;3.50;99.90;;;;;;5021395;28;20463;-69
2021/12/02 12:59:20;;;;;;;0.40;0.40;;;3.40;99.90;;;;;;5015496;28;20434;-69
2021/12/02 13:02:07;;;;;;;1.87;0.93;;;3.50;99.90;;;;;;5016298;28;20430;-70
2021/12/02 13:04:55;;;;;;;0.40;0.40;;;3.50;99.90;;;;;;5015087;28;20454;-69
2021/12/02 13:07:43;;;;;;;0.50;0.50;;;3.40;99.90;;;;;;5016140;28;20434;-69
2021/12/02 13:10:30;;;;;;;0.50;0.50;;;3.50;99.90;;;;;;5016838;28;20422;-69
2021/12/02 13:13:22;;;;;;;0.50;0.50;;;3.50;99.90;;;;;;5015926;28;20461;-69
2021/12/02 13:16:11;;;;;;;0.50;0.50;;;3.50;99.90;;;;;;5016406;28;21052;-69
2021/12/02 13:19:00;;;;;;;0.73;0.50;;;3.60;99.90;;;;;;5015232;28;20477;-71
2021/12/02 13:21:57;;;;;;;0.40;0.40;;;4.00;99.90;;;;;;5014530;28;20419;-70
2021/12/02 13:24:45;;;;;;;0.50;0.50;;;3.60;99.90;;;;;;5014875;28;20453;-69
2021/12/02 13:27:32;;;;;;;0.50;0.50;;;3.70;99.90;;;;;;5014013;28;20426;-69
2021/12/02 13:30:20;;;;;;;0.50;0.50;;;3.90;99.90;;;;;;5016025;28;20426;-70
2021/12/02 13:33:07;;;;;;;0.60;0.60;;;4.20;99.90;;;;;;5013928;28;20450;-69
2021/12/02 13:35:54;;;;;;;0.60;0.60;;;4.20;99.90;;;;;;5014354;28;20469;-69
2021/12/02 13:38:43;;;;;;;0.40;0.40;;;4.50;99.90;;;;;;5014712;28;20430;-72
2021/12/02 13:41:37;;;;;;;0.40;0.40;;;4.60;99.90;;;;;;5014367;28;20433;-69
2021/12/02 13:44:28;;;;;;;0.60;0.60;;;4.70;99.90;;;;;;5014043;28;20456;-70
2021/12/02 13:47:18;;;;;;;0.60;0.60;;;4.80;99.90;;;;;;5014002;28;20437;-70
2021/12/02 13:50:07;;;;;;;0.50;0.50;;;4.40;99.90;;;;;;5002620;28;20431;-70
2021/12/02 13:52:54;;;;;;;0.40;0.40;;;4.40;99.90;;;;;;5014542;28;20529;-69
2021/12/02 13:55:44;;;;;;;0.40;0.40;;;4.80;99.90;;;;;;5015932;28;20461;-69
2021/12/02 13:58:32;;;;;;;0.47;0.47;;;5.20;99.90;;;;;;5013796;28;20430;-70
2021/12/02 14:01:19;;;;;;;0.50;0.50;;;5.10;99.90;;;;;;5014427;28;20426;-70
2021/12/02 14:04:06;;;;;;;0.50;0.50;;;4.50;99.90;;;;;;5013844;28;20481;-69
2021/12/02 14:07:14;;;;;;;0.60;0.60;;;4.00;99.90;;;;;;5012761;28;20430;-70
2021/12/02 14:10:01;;;;;;;1.23;1.17;;;3.70;99.90;;;;;;5013822;28;20429;-70
2021/12/02 14:12:51;;;;;;;0.50;0.50;;;3.30;99.90;;;;;;5014030;28;20500;-70
2021/12/02 14:15:41;;;;;;;0.50;0.50;;;3.30;99.90;;;;;;5014534;28;20466;-70
2021/12/02 14:18:29;;;;;;;0.40;0.40;;;3.20;99.90;;;;;;5013461;28;20422;-71
2021/12/02 14:21:17;;;;;;;0.50;0.50;;;0.90;99.90;;;;;;5013369;28;20449;-72
2021/12/02 14:24:04;;;;;;;1.07;1.07;;;3.00;99.90;;;;;;5013145;28;20478;-70
2021/12/02 14:26:51;;;;;;;0.50;0.50;;;2.90;99.90;;;;;;5014042;28;20418;-70
2021/12/02 14:29:38;;;;;;;0.60;0.50;;;2.90;99.90;;;;;;5032600;28;20503;-69
2021/12/02 14:32:32;;;;;;;0.67;0.67;;;;;;;;;;5034200;28;20785;-71
2021/12/02 14:35:20;;;;;;;0.40;0.40;;;2.80;99.90;;;;;;5033520;28;20507;-70
2021/12/02 14:38:17;;;;;;;0.50;0.50;;;2.80;99.90;;;;;;5035668;28;20433;-70
2021/12/02 14:41:13;;;;;;;0.50;0.50;;;2.70;99.90;;;;;;5037283;28;20421;-69
2021/12/02 14:44:06;;;;;;;0.50;0.50;;;2.60;99.90;;;;;;5021838;28;20545;-69
2021/12/02 14:46:54;;;;;;;0.60;0.60;;;2.50;99.90;;;;;;5017767;28;20817;-70
2021/12/02 14:49:45;;;;;;;0.40;0.40;;;2.50;99.90;;;;;;5017024;28;20465;-70
2021/12/02 14:52:34;;;;;;;0.50;0.50;;;2.30;99.90;;;;;;5016277;28;20430;-70
2021/12/02 14:55:24;;;;;;;0.40;0.40;;;2.30;99.90;;;;;;5029445;28;20427;-70